Time;durP1;ratioP1;P1;durP2;ratioP2;P2;SDS_P1;SDS_P2;PMS_P1;PMS_P2;Temp;Humidity;BMP_temperature;BMP_pressure;BME280_temperature;BME280_humidity;BME280_pressure;Samples;Min_cycle;Max_cycle;Signal;HPM_P1;HPM_P2
2023/06/30 00:01:24;;;;;;;3.17;2.88;;;;;;;;;;5110955;28;20489;-27
2023/06/30 00:03:53;;;;;;;2.95;2.70;;;;;;;;;;5099187;28;20208;-28
2023/06/30 00:06:20;;;;;;;3.30;2.92;;;;;;;;;;5098692;28;20205;-31
2023/06/30 00:08:48;;;;;;;3.13;2.50;;;;;;;;;;5106225;28;20226;-29
2023/06/30 00:11:15;;;;;;;3.00;2.80;;;;;;;;;;5099321;28;20658;-29
2023/06/30 00:13:42;;;;;;;2.53;2.33;;;;;;;;;;5101804;28;20218;-36
2023/06/30 00:16:09;;;;;;;2.88;2.65;;;;;;;;;;5110591;28;20208;-34
2023/06/30 00:18:36;;;;;;;3.17;2.80;;;;;;;;;;5104737;28;20227;-40
2023/06/30 00:21:05;;;;;;;3.65;3.08;;;;;;;;;;5096258;28;20213;-40
2023/06/30 00:23:32;;;;;;;4.40;2.80;;;;;;;;;;5107584;28;20196;-41
2023/06/30 00:26:01;;;;;;;4.18;2.53;;;;;;;;;;5094585;28;20304;-39
2023/06/30 00:28:28;;;;;;;3.35;2.85;;;;;;;;;;5104968;28;20214;-37
2023/06/30 00:30:55;;;;;;;4.03;3.08;;;;;;;;;;5090039;28;20200;-35
2023/06/30 00:33:22;;;;;;;4.18;2.80;;;;;;;;;;5091714;28;20226;-39
2023/06/30 00:35:49;;;;;;;3.33;3.03;;;;;;;;;;5093086;28;20201;-33
2023/06/30 00:38:18;;;;;;;3.47;3.00;;;;;;;;;;5090763;28;20226;-41
2023/06/30 00:40:45;;;;;;;4.63;3.15;;;;;;;;;;5094220;28;20605;-31
2023/06/30 00:43:12;;;;;;;4.82;3.20;;;;;;;;;;5105667;28;20204;-32
2023/06/30 00:45:39;;;;;;;5.93;3.10;;;;;;;;;;5089848;28;20226;-31
2023/06/30 00:48:07;;;;;;;2.60;2.40;;;;;;;;;;5088940;28;20264;-34
2023/06/30 00:50:34;;;;;;;2.85;2.65;;;;;;;;;;5093292;28;20573;-37
2023/06/30 00:53:01;;;;;;;5.65;2.97;;;;;;;;;;5108754;28;20217;-32
2023/06/30 00:55:30;;;;;;;3.67;3.28;;;;;;;;;;5101034;28;20205;-39
2023/06/30 00:57:57;;;;;;;5.43;3.03;;;;;;;;;;5104238;28;20228;-38
2023/06/30 01:00:24;;;;;;;3.42;3.13;;;;;;;;;;5092442;28;20210;-40
2023/06/30 01:02:53;;;;;;;3.80;3.30;;;;;;;;;;5094487;28;20198;-36
2023/06/30 01:05:26;;;;;;;4.53;3.00;;;;;;;;;;5091100;28;20200;-38
2023/06/30 01:07:55;;;;;;;3.03;2.75;;;;;;;;;;5091091;28;20229;-36
2023/06/30 01:10:24;;;;;;;2.60;2.40;;;;;;;;;;5099515;28;20197;-38
2023/06/30 01:12:53;;;;;;;4.35;2.80;;;;;;;;;;5095435;28;20221;-34
2023/06/30 01:15:21;;;;;;;2.80;2.60;;;;;;;;;;5113045;28;20211;-32
2023/06/30 01:17:49;;;;;;;3.17;2.88;;;;;;;;;;5105833;28;20228;-34
2023/06/30 01:20:19;;;;;;;2.83;2.63;;;;;;;;;;5103547;28;20227;-35
2023/06/30 01:22:50;;;;;;;3.33;2.70;;;;;;;;;;5112678;28;20274;-35
2023/06/30 01:25:20;;;;;;;4.70;3.38;;;;;;;;;;5097649;28;20219;-39
2023/06/30 01:27:49;;;;;;;3.53;3.15;;;;;;;;;;5108780;28;20232;-34
2023/06/30 01:30:17;;;;;;;2.80;2.60;;;;;;;;;;5093300;28;20204;-34
2023/06/30 01:32:45;;;;;;;3.00;2.80;;;;;;;;;;5091085;28;20221;-35
2023/06/30 01:35:12;;;;;;;4.45;2.90;;;;;;;;;;5101686;28;20208;-36
2023/06/30 01:37:39;;;;;;;3.03;2.75;;;;;;;;;;5106198;28;20221;-35
2023/06/30 01:40:07;;;;;;;3.53;2.97;;;;;;;;;;5092574;28;20205;-36
2023/06/30 01:42:35;;;;;;;3.85;2.70;;;;;;;;;;5097337;28;20196;-35
2023/06/30 01:45:02;;;;;;;4.72;3.05;;;;;;;;;;5095221;28;20244;-36
2023/06/30 01:47:31;;;;;;;3.92;3.00;;;;;;;;;;5091804;28;20199;-36
2023/06/30 01:49:58;;;;;;;3.42;3.05;;;;;;;;;;5089409;28;20209;-36
2023/06/30 01:52:25;;;;;;;3.63;2.78;;;;;;;;;;5100729;28;20211;-34
2023/06/30 01:54:52;;;;;;;4.72;3.28;;;;;;;;;;5092195;28;20229;-37
2023/06/30 01:57:20;;;;;;;7.50;3.25;;;;;;;;;;5111367;28;20206;-31
2023/06/30 01:59:47;;;;;;;3.97;3.13;;;;;;;;;;5112462;28;20201;-36
2023/06/30 02:02:14;;;;;;;3.38;3.08;;;;;;;;;;5108187;28;20199;-33
2023/06/30 02:04:43;;;;;;;3.55;3.25;;;;;;;;;;5098663;28;20207;-34
2023/06/30 02:07:10;;;;;;;4.45;2.88;;;;;;;;;;5111456;28;20207;-38
2023/06/30 02:09:37;;;;;;;3.78;3.10;;;;;;;;;;5099642;28;20228;-37
2023/06/30 02:12:04;;;;;;;3.58;3.00;;;;;;;;;;5108921;28;20204;-41
2023/06/30 02:14:32;;;;;;;4.20;3.13;;;;;;;;;;5099325;28;20213;-38
2023/06/30 02:16:59;;;;;;;4.22;3.17;;;;;;;;;;5091552;28;20287;-36
2023/06/30 02:19:26;;;;;;;3.08;2.80;;;;;;;;;;5091821;28;20220;-32
2023/06/30 02:21:54;;;;;;;4.03;3.13;;;;;;;;;;5103357;28;20196;-36
2023/06/30 02:24:21;;;;;;;3.92;2.92;;;;;;;;;;5096767;28;20228;-29
2023/06/30 02:26:48;;;;;;;4.45;2.90;;;;;;;;;;5096058;28;20283;-34
2023/06/30 02:29:16;;;;;;;4.03;3.42;;;;;;;;;;5100214;28;20212;-36
2023/06/30 02:31:43;;;;;;;6.43;3.33;;;;;;;;;;5094038;28;20214;-35
2023/06/30 02:34:10;;;;;;;5.10;3.53;;;;;;;;;;5093569;28;20311;-34
2023/06/30 02:36:37;;;;;;;3.78;3.30;;;;;;;;;;5111375;28;20560;-39
2023/06/30 02:39:05;;;;;;;5.25;3.40;;;;;;;;;;5095406;28;20235;-36
2023/06/30 02:41:33;;;;;;;3.67;3.38;;;;;;;;;;5104482;28;20196;-35
2023/06/30 02:44:00;;;;;;;3.22;2.90;;;;;;;;;;5093646;28;20207;-34
2023/06/30 02:46:27;;;;;;;5.18;3.42;;;;;;;;;;5090972;28;20205;-34
2023/06/30 02:48:54;;;;;;;4.43;3.05;;;;;;;;;;5100071;28;20220;-39
2023/06/30 02:51:21;;;;;;;3.20;3.00;;;;;;;;;;5110070;28;20209;-37
2023/06/30 02:53:48;;;;;;;3.30;3.00;;;;;;;;;;5096758;28;20221;-37
2023/06/30 02:56:17;;;;;;;3.33;3.03;;;;;;;;;;5099285;28;20203;-31
2023/06/30 02:58:44;;;;;;;3.45;3.10;;;;;;;;;;5097601;28;20224;-33
2023/06/30 03:01:11;;;;;;;3.63;3.30;;;;;;;;;;5112458;28;20303;-32
2023/06/30 03:03:39;;;;;;;3.58;3.28;;;;;;;;;;5107165;28;20200;-38
2023/06/30 03:06:06;;;;;;;3.38;2.60;;;;;;;;;;5092560;28;20212;-33
2023/06/30 03:08:34;;;;;;;5.68;3.08;;;;;;;;;;5088275;28;20228;-35
2023/06/30 03:11:01;;;;;;;3.63;3.33;;;;;;;;;;5102807;28;20503;-34
2023/06/30 03:13:29;;;;;;;3.50;3.20;;;;;;;;;;5095593;28;20213;-33
2023/06/30 03:15:56;;;;;;;3.53;3.22;;;;;;;;;;5111993;28;20200;-37
2023/06/30 03:18:23;;;;;;;4.60;3.30;;;;;;;;;;5107441;28;20223;-29
2023/06/30 03:20:51;;;;;;;3.83;2.92;;;;;;;;;;5098297;28;20208;-32
2023/06/30 03:23:20;;;;;;;6.35;3.42;;;;;;;;;;5110669;28;20204;-32
2023/06/30 03:25:47;;;;;;;3.72;3.40;;;;;;;;;;5102494;28;20208;-36
2023/06/30 03:28:14;;;;;;;4.18;3.20;;;;;;;;;;5108255;28;20227;-34
2023/06/30 03:30:42;;;;;;;3.85;2.92;;;;;;;;;;5091303;28;20204;-33
2023/06/30 03:33:10;;;;;;;4.43;3.10;;;;;;;;;;5090349;28;20222;-32
2023/06/30 03:35:37;;;;;;;3.03;2.80;;;;;;;;;;5099040;28;20191;-36
2023/06/30 03:38:04;;;;;;;3.75;3.38;;;;;;;;;;5112616;28;20561;-35
2023/06/30 03:40:31;;;;;;;6.55;3.80;;;;;;;;;;5094910;28;20719;-37
2023/06/30 03:42:58;;;;;;;4.05;3.40;;;;;;;;;;5109127;28;20195;-35
2023/06/30 03:45:25;;;;;;;4.30;3.90;;;;;;;;;;5092723;28;20196;-33
2023/06/30 03:47:54;;;;;;;5.97;3.58;;;;;;;;;;5091798;28;20224;-32
2023/06/30 03:50:21;;;;;;;6.47;3.25;;;;;;;;;;5106651;28;20201;-36
2023/06/30 03:52:48;;;;;;;3.40;3.08;;;;;;;;;;5104974;28;20202;-33
2023/06/30 03:55:15;;;;;;;3.95;3.03;;;;;;;;;;5100650;28;20223;-33
2023/06/30 03:57:42;;;;;;;3.40;3.20;;;;;;;;;;5106048;28;20231;-33
2023/06/30 04:00:11;;;;;;;3.80;3.40;;;;;;;;;;5110402;28;20203;-37
2023/06/30 04:02:39;;;;;;;5.25;3.50;;;;;;;;;;5113432;28;20238;-37
2023/06/30 04:05:07;;;;;;;3.88;3.58;;;;;;;;;;5099013;28;20704;-35
2023/06/30 04:07:34;;;;;;;4.53;3.88;;;;;;;;;;5098765;28;20248;-31
2023/06/30 04:10:01;;;;;;;3.75;3.45;;;;;;;;;;5104567;28;20200;-35
2023/06/30 04:12:29;;;;;;;4.10;3.67;;;;;;;;;;5105357;28;20200;-37
2023/06/30 04:14:56;;;;;;;5.05;3.22;;;;;;;;;;5093057;28;20216;-37
2023/06/30 04:17:24;;;;;;;3.72;3.42;;;;;;;;;;5092825;28;20282;-31
2023/06/30 04:19:51;;;;;;;3.67;3.33;;;;;;;;;;5093706;28;20203;-34
2023/06/30 04:22:19;;;;;;;4.03;3.55;;;;;;;;;;5104132;28;20198;-36
2023/06/30 04:24:47;;;;;;;4.10;3.17;;;;;;;;;;5104882;28;20191;-37
2023/06/30 04:27:14;;;;;;;3.97;3.50;;;;;;;;;;5099728;28;20204;-35
2023/06/30 04:29:41;;;;;;;5.07;3.30;;;;;;;;;;5092935;28;20196;-33
2023/06/30 04:32:08;;;;;;;4.68;3.95;;;;;;;;;;5092869;28;20203;-33
2023/06/30 04:34:35;;;;;;;4.60;3.65;;;;;;;;;;5170133;23;20297;-27
2023/06/30 04:37:02;;;;;;;3.47;3.17;;;;;;;;;;5081237;28;20605;-27
2023/06/30 04:39:31;;;;;;;3.58;3.28;;;;;;;;;;5058920;28;20225;-26
2023/06/30 04:41:59;;;;;;;5.20;3.40;;;;;;;;;;5070376;28;20201;-24
2023/06/30 04:44:26;;;;;;;5.78;3.92;;;;;;;;;;5072579;28;20208;-26
2023/06/30 04:46:53;;;;;;;4.65;3.95;;;;;;;;;;5065872;28;20209;-25
2023/06/30 04:49:20;;;;;;;7.03;3.60;;;;;;;;;;5071806;28;20220;-25
2023/06/30 04:51:47;;;;;;;6.35;4.25;;;;;;;;;;5072718;28;20197;-26
2023/06/30 04:54:14;;;;;;;5.35;3.88;;;;;;;;;;5066185;28;20538;-25
2023/06/30 04:56:43;;;;;;;4.38;3.97;;;;;;;;;;5062646;28;20197;-25
2023/06/30 04:59:10;;;;;;;4.20;3.80;;;;;;;;;;5071347;28;20220;-27
2023/06/30 05:01:37;;;;;;;4.20;3.20;;;;;;;;;;5072764;28;20213;-26
2023/06/30 05:04:04;;;;;;;4.73;3.50;;;;;;;;;;5062497;28;20203;-26
2023/06/30 05:06:31;;;;;;;4.60;4.13;;;;;;;;;;5071377;28;20203;-22
2023/06/30 05:08:58;;;;;;;4.93;3.70;;;;;;;;;;5069032;28;20236;-26
2023/06/30 05:11:25;;;;;;;4.47;3.95;;;;;;;;;;5064771;28;20645;-26
2023/06/30 05:13:54;;;;;;;7.05;4.53;;;;;;;;;;5071892;28;20248;-23
2023/06/30 05:16:21;;;;;;;4.30;3.60;;;;;;;;;;5071883;28;20219;-27
2023/06/30 05:18:48;;;;;;;4.30;3.75;;;;;;;;;;5066514;28;20244;-25
2023/06/30 05:21:15;;;;;;;6.93;4.68;;;;;;;;;;5071785;28;20215;-26
2023/06/30 05:23:42;;;;;;;7.70;4.20;;;;;;;;;;5069255;28;20201;-25
2023/06/30 05:26:10;;;;;;;6.32;4.40;;;;;;;;;;5063539;28;20206;-23
2023/06/30 05:28:38;;;;;;;7.13;4.18;;;;;;;;;;5071776;28;20213;-24
2023/06/30 05:31:06;;;;;;;3.85;3.50;;;;;;;;;;5072242;28;20209;-24
2023/06/30 05:33:34;;;;;;;7.85;4.60;;;;;;;;;;5069721;28;20219;-27
2023/06/30 05:36:01;;;;;;;4.77;4.27;;;;;;;;;;5061040;28;20237;-25
2023/06/30 05:38:28;;;;;;;6.35;4.60;;;;;;;;;;5068865;28;20221;-27
2023/06/30 05:40:55;;;;;;;4.20;3.80;;;;;;;;;;5068252;28;20193;-23
2023/06/30 05:43:22;;;;;;;4.60;4.18;;;;;;;;;;5074593;28;20193;-25
2023/06/30 05:45:49;;;;;;;4.03;3.72;;;;;;;;;;5075800;28;20209;-23
2023/06/30 05:48:18;;;;;;;6.38;5.10;;;;;;;;;;5072598;28;20255;-25
2023/06/30 05:50:46;;;;;;;7.90;4.97;;;;;;;;;;5073805;28;20205;-26
2023/06/30 05:53:13;;;;;;;6.25;4.65;;;;;;;;;;5075139;28;20274;-26
2023/06/30 05:55:40;;;;;;;6.88;4.90;;;;;;;;;;5066267;28;20235;-27
2023/06/30 05:58:07;;;;;;;6.63;4.35;;;;;;;;;;5072011;28;20225;-26
2023/06/30 06:00:34;;;;;;;7.77;4.70;;;;;;;;;;5075170;28;20207;-26
2023/06/30 06:03:02;;;;;;;5.75;4.93;;;;;;;;;;5062808;28;20256;-26
2023/06/30 06:05:30;;;;;;;9.25;5.38;;;;;;;;;;5071912;28;20259;-26
2023/06/30 06:07:57;;;;;;;8.57;5.35;;;;;;;;;;5074414;28;20596;-26
2023/06/30 06:10:24;;;;;;;6.30;5.20;;;;;;;;;;5059538;28;20213;-26
2023/06/30 06:12:52;;;;;;;7.72;5.22;;;;;;;;;;5074864;28;20212;-25
2023/06/30 06:15:19;;;;;;;5.73;5.00;;;;;;;;;;5074834;28;20690;-26
2023/06/30 06:17:46;;;;;;;7.68;5.53;;;;;;;;;;5070437;28;20224;-26
2023/06/30 06:20:13;;;;;;;6.30;5.03;;;;;;;;;;5066742;28;20217;-24
2023/06/30 06:22:42;;;;;;;7.93;5.47;;;;;;;;;;5074763;28;20197;-25
2023/06/30 06:25:10;;;;;;;11.38;4.75;;;;;;;;;;5069854;28;20251;-24
2023/06/30 06:27:37;;;;;;;9.52;5.38;;;;;;;;;;5070897;28;20221;-25
2023/06/30 06:30:05;;;;;;;15.75;7.32;;;;;;;;;;5074758;28;20193;-25
2023/06/30 06:32:32;;;;;;;12.65;6.70;;;;;;;;;;5073549;28;20209;-26
2023/06/30 06:34:59;;;;;;;9.43;5.25;;;;;;;;;;5062283;28;20320;-25
2023/06/30 06:37:26;;;;;;;9.80;5.65;;;;;;;;;;5073523;28;20208;-27
2023/06/30 06:39:54;;;;;;;6.68;5.07;;;;;;;;;;5065953;28;20201;-27
2023/06/30 06:42:22;;;;;;;8.05;5.82;;;;;;;;;;5071920;28;20308;-27
2023/06/30 06:44:49;;;;;;;11.17;6.20;;;;;;;;;;5073798;28;20198;-23
2023/06/30 06:47:34;;;;;;;11.60;5.67;;;;;;;;;;5073071;28;20212;-26
2023/06/30 06:50:02;;;;;;;7.43;4.87;;;;;;;;;;5063776;28;20206;-23
2023/06/30 06:52:29;;;;;;;8.45;5.15;;;;;;;;;;5074015;28;20219;-25
2023/06/30 06:54:58;;;;;;;9.68;5.85;;;;;;;;;;5065516;28;20232;-25
2023/06/30 06:57:27;;;;;;;8.63;5.90;;;;;;;;;;5073871;28;20209;-25
2023/06/30 06:59:54;;;;;;;8.70;4.95;;;;;;;;;;5074000;28;20217;-23
2023/06/30 07:02:21;;;;;;;9.48;5.65;;;;;;;;;;5074451;28;20212;-27
2023/06/30 07:04:57;;;;;;;9.67;5.73;;;;;;;;;;5064927;28;20197;-23
2023/06/30 07:07:25;;;;;;;9.05;5.47;;;;;;;;;;5073262;28;20254;-25
2023/06/30 07:09:52;;;;;;;7.80;6.20;;;;;;;;;;5059342;28;20198;-25
2023/06/30 07:12:20;;;;;;;8.67;6.30;;;;;;;;;;5072645;28;20208;-24
2023/06/30 07:14:47;;;;;;;10.15;5.63;;;;;;;;;;5073441;28;20227;-24
2023/06/30 07:17:15;;;;;;;13.77;7.25;;;;;;;;;;5071702;28;20209;-23
2023/06/30 07:19:42;;;;;;;10.00;6.22;;;;;;;;;;5062554;28;20209;-26
2023/06/30 07:22:10;;;;;;;10.65;6.20;;;;;;;;;;5071469;28;20201;-26
2023/06/30 07:24:37;;;;;;;13.18;7.05;;;;;;;;;;5067381;28;20554;-26
2023/06/30 07:27:04;;;;;;;7.45;5.88;;;;;;;;;;5066129;28;20197;-27
2023/06/30 07:29:33;;;;;;;9.23;6.28;;;;;;;;;;5069664;28;20224;-24
2023/06/30 07:32:00;;;;;;;10.48;6.63;;;;;;;;;;5072437;28;20247;-25
2023/06/30 07:34:29;;;;;;;8.88;6.53;;;;;;;;;;5069324;28;20216;-25
2023/06/30 07:36:56;;;;;;;8.43;6.60;;;;;;;;;;5073792;28;20236;-26
2023/06/30 07:39:23;;;;;;;7.90;6.60;;;;;;;;;;5069199;28;20591;-26
2023/06/30 07:41:51;;;;;;;7.82;5.82;;;;;;;;;;5072705;28;20205;-24
2023/06/30 07:44:19;;;;;;;12.43;6.60;;;;;;;;;;5072820;28;20209;-23
2023/06/30 07:46:48;;;;;;;10.18;6.25;;;;;;;;;;5072790;28;20204;-26
2023/06/30 07:49:25;;;;;;;10.70;6.53;;;;;;;;;;5063928;28;20222;-24
2023/06/30 07:51:53;;;;;;;8.48;6.13;;;;;;;;;;5072940;28;20201;-26
2023/06/30 07:54:20;;;;;;;6.68;5.80;;;;;;;;;;5069813;28;20651;-23
2023/06/30 07:56:47;;;;;;;7.53;5.90;;;;;;;;;;5068675;28;20297;-24
2023/06/30 07:59:15;;;;;;;8.52;6.20;;;;;;;;;;5072566;28;20251;-23
2023/06/30 08:01:42;;;;;;;6.22;5.13;;;;;;;;;;5072153;28;20197;-26
2023/06/30 08:04:11;;;;;;;8.13;5.95;;;;;;;;;;5062444;28;20209;-25
2023/06/30 08:06:38;;;;;;;6.55;5.72;;;;;;;;;;5069894;28;20201;-26
2023/06/30 08:09:05;;;;;;;6.40;5.15;;;;;;;;;;5067481;28;20221;-24
2023/06/30 08:11:32;;;;;;;8.32;6.00;;;;;;;;;;5064397;28;20229;-25
2023/06/30 08:14:00;;;;;;;7.57;5.65;;;;;;;;;;5070731;28;20759;-24
2023/06/30 08:16:27;;;;;;;8.85;6.05;;;;;;;;;;5068815;28;20228;-27
2023/06/30 08:18:54;;;;;;;8.60;6.53;;;;;;;;;;5061492;28;20222;-23
2023/06/30 08:21:23;;;;;;;10.40;6.43;;;;;;;;;;5071692;28;20199;-27
2023/06/30 08:23:50;;;;;;;8.40;5.97;;;;;;;;;;5069535;28;20206;-26
2023/06/30 08:26:17;;;;;;;9.10;6.20;;;;;;;;;;5066167;28;20568;-27
2023/06/30 08:28:44;;;;;;;9.52;6.88;;;;;;;;;;5071838;28;20217;-24
2023/06/30 08:31:11;;;;;;;9.93;6.57;;;;;;;;;;5072937;28;20209;-26
2023/06/30 08:33:38;;;;;;;9.95;6.05;;;;;;;;;;5061702;28;20211;-25
2023/06/30 08:36:06;;;;;;;10.13;6.63;;;;;;;;;;5069665;28;20221;-25
2023/06/30 08:38:35;;;;;;;9.88;6.45;;;;;;;;;;5068787;28;20221;-23
2023/06/30 08:41:02;;;;;;;9.85;6.53;;;;;;;;;;5061534;28;20205;-27
2023/06/30 08:43:30;;;;;;;10.60;6.43;;;;;;;;;;5072250;28;20643;-25
2023/06/30 08:45:57;;;;;;;8.70;6.38;;;;;;;;;;5073175;28;20201;-25
2023/06/30 08:48:25;;;;;;;11.13;6.32;;;;;;;;;;5064724;28;20221;-24
2023/06/30 08:50:52;;;;;;;13.18;7.68;;;;;;;;;;5072255;28;20209;-24
2023/06/30 08:53:19;;;;;;;11.82;7.30;;;;;;;;;;5071767;28;20201;-23
2023/06/30 08:55:48;;;;;;;10.43;7.43;;;;;;;;;;5064818;28;20729;-25
2023/06/30 08:58:16;;;;;;;9.68;7.10;;;;;;;;;;5071548;28;20225;-27
2023/06/30 09:00:43;;;;;;;31.70;17.50;;;;;;;;;;5072581;28;20205;-24
2023/06/30 09:03:10;;;;;;;17.60;11.40;;;;;;;;;;5072953;28;20216;-25
2023/06/30 09:05:39;;;;;;;13.20;8.03;;;;;;;;;;5067185;28;20204;-24
2023/06/30 09:08:11;;;;;;;13.07;8.05;;;;;;;;;;5062718;28;20228;-24
2023/06/30 09:10:41;;;;;;;10.63;7.63;;;;;;;;;;5057129;28;20193;-26
2023/06/30 09:13:10;;;;;;;11.50;8.15;;;;;;;;;;5070495;28;20240;-26
2023/06/30 09:15:38;;;;;;;12.30;8.35;;;;;;;;;;5075989;28;20226;-27
2023/06/30 09:18:05;;;;;;;11.18;8.68;;;;;;;;;;5064178;28;20217;-23
2023/06/30 09:20:32;;;;;;;13.93;8.75;;;;;;;;;;5075146;28;20257;-26
2023/06/30 09:23:01;;;;;;;13.93;8.43;;;;;;;;;;5075681;28;20205;-23
2023/06/30 09:25:39;;;;;;;10.93;8.40;;;;;;;;;;5066045;28;20208;-25
2023/06/30 09:28:09;;;;;;;9.98;7.57;;;;;;;;;;5072002;28;20707;-24
2023/06/30 09:30:38;;;;;;;12.75;8.75;;;;;;;;;;5064185;28;20201;-22
2023/06/30 09:33:07;;;;;;;13.65;9.25;;;;;;;;;;5069948;28;20205;-25
2023/06/30 09:35:38;;;;;;;11.68;7.68;;;;;;;;;;5062413;28;20267;-25
2023/06/30 09:38:17;;;;;;;12.77;8.20;;;;;;;;;;5068894;28;20301;-27
2023/06/30 09:40:44;;;;;;;12.07;8.98;;;;;;;;;;5063797;28;20481;-23
2023/06/30 09:43:17;;;;;;;14.38;9.40;;;;;;;;;;5070914;28;20209;-25
2023/06/30 09:45:46;;;;;;;12.60;8.52;;;;;;;;;;5072972;28;20205;-25
2023/06/30 09:48:19;;;;;;;17.17;10.20;;;;;;;;;;5067065;28;20224;-28
2023/06/30 09:50:46;;;;;;;11.10;8.65;;;;;;;;;;5066155;28;20201;-23
2023/06/30 09:53:20;;;;;;;11.77;9.25;;;;;;;;;;5068250;28;20242;-27
2023/06/30 09:55:51;;;;;;;10.82;7.82;;;;;;;;;;5058183;28;20306;-24
2023/06/30 09:58:19;;;;;;;13.50;9.70;;;;;;;;;;5070317;28;20231;-24
2023/06/30 10:00:48;;;;;;;14.23;9.93;;;;;;;;;;5072413;28;20223;-25
2023/06/30 10:03:16;;;;;;;13.57;9.40;;;;;;;;;;5067338;28;20292;-24
2023/06/30 10:05:44;;;;;;;11.95;9.15;;;;;;;;;;5070952;28;20209;-25
2023/06/30 10:08:12;;;;;;;14.25;9.45;;;;;;;;;;5070792;28;20961;-25
2023/06/30 10:10:41;;;;;;;14.32;9.65;;;;;;;;;;5063091;28;20207;-24
2023/06/30 10:13:09;;;;;;;13.93;10.00;;;;;;;;;;5071290;28;20242;-25
2023/06/30 10:15:36;;;;;;;12.63;9.23;;;;;;;;;;5074168;28;20221;-23
2023/06/30 10:18:05;;;;;;;11.55;8.43;;;;;;;;;;5064144;28;20225;-27
2023/06/30 10:20:33;;;;;;;14.95;8.40;;;;;;;;;;5066180;28;20200;-24
2023/06/30 10:23:01;;;;;;;13.80;9.48;;;;;;;;;;5068348;28;20209;-25
2023/06/30 10:25:29;;;;;;;13.18;9.82;;;;;;;;;;5060850;28;20210;-23
2023/06/30 10:27:56;;;;;;;13.98;9.32;;;;;;;;;;5071564;28;20263;-24
2023/06/30 10:30:24;;;;;;;11.40;8.68;;;;;;;;;;5071792;28;20208;-25
2023/06/30 10:32:51;;;;;;;11.68;8.68;;;;;;;;;;5062534;28;20233;-24
2023/06/30 10:35:20;;;;;;;11.60;8.90;;;;;;;;;;5070178;28;20213;-22
2023/06/30 10:37:47;;;;;;;15.07;9.05;;;;;;;;;;5070478;28;20213;-25
2023/06/30 10:40:24;;;;;;;14.20;9.45;;;;;;;;;;5060801;28;20209;-24
2023/06/30 10:42:52;;;;;;;11.77;8.15;;;;;;;;;;5066506;28;20809;-26
2023/06/30 10:45:20;;;;;;;15.23;10.30;;;;;;;;;;5070977;28;20266;-25
2023/06/30 10:47:53;;;;;;;15.10;9.32;;;;;;;;;;5070393;28;20237;-29
2023/06/30 10:50:23;;;;;;;11.73;8.77;;;;;;;;;;5063061;28;20206;-26
2023/06/30 10:52:51;;;;;;;14.00;9.60;;;;;;;;;;5069321;28;20227;-24
2023/06/30 10:55:21;;;;;;;15.38;10.23;;;;;;;;;;5060741;28;20202;-26
2023/06/30 10:57:52;;;;;;;15.85;10.25;;;;;;;;;;5066420;28;20311;-24
2023/06/30 11:00:21;;;;;;;14.40;9.25;;;;;;;;;;5070143;28;20241;-26
2023/06/30 11:02:49;;;;;;;13.48;8.98;;;;;;;;;;5069341;28;20203;-23
2023/06/30 11:05:20;;;;;;;13.00;9.38;;;;;;;;;;5067530;28;20205;-26
2023/06/30 11:07:49;;;;;;;13.40;8.73;;;;;;;;;;5070141;28;20243;-24
2023/06/30 11:10:27;;;;;;;10.75;7.95;;;;;;;;;;5063493;28;20236;-23
2023/06/30 11:12:55;;;;;;;12.60;8.63;;;;;;;;;;5070206;28;20262;-23
2023/06/30 11:15:26;;;;;;;12.10;9.02;;;;;;;;;;5071027;28;20228;-26
2023/06/30 11:18:00;;;;;;;12.27;8.68;;;;;;;;;;5063020;28;20224;-23
2023/06/30 11:20:27;;;;;;;11.40;8.60;;;;;;;;;;5067000;28;20208;-29
2023/06/30 11:23:00;;;;;;;10.60;8.02;;;;;;;;;;5070099;28;20205;-22
2023/06/30 11:25:28;;;;;;;14.13;9.10;;;;;;;;;;5066896;28;20255;-26
2023/06/30 11:27:55;;;;;;;11.93;9.38;;;;;;;;;;5068180;28;20247;-24
2023/06/30 11:30:23;;;;;;;13.63;9.57;;;;;;;;;;5070502;28;20201;-23
2023/06/30 11:32:54;;;;;;;12.68;9.45;;;;;;;;;;5066986;28;20213;-27
2023/06/30 11:35:22;;;;;;;11.70;9.38;;;;;;;;;;5068194;28;20209;-26
2023/06/30 11:37:49;;;;;;;12.57;9.38;;;;;;;;;;5068343;28;20240;-26
2023/06/30 11:40:19;;;;;;;11.70;8.43;;;;;;;;;;5060573;28;20219;-22
2023/06/30 11:42:46;;;;;;;15.95;10.32;;;;;;;;;;5069974;28;20201;-25
2023/06/30 11:45:19;;;;;;;14.60;10.05;;;;;;;;;;5070343;28;20204;-25
2023/06/30 11:47:48;;;;;;;13.43;9.48;;;;;;;;;;5139521;23;20217;-25
2023/06/30 11:50:15;;;;;;;13.02;10.10;;;;;;;;;;5041902;28;20225;-23
2023/06/30 11:52:42;;;;;;;15.13;10.57;;;;;;;;;;5052584;28;20205;-24
2023/06/30 11:55:10;;;;;;;16.80;11.15;;;;;;;;;;5046790;28;20216;-25
2023/06/30 11:57:57;;;;;;;16.83;11.55;;;;;;;;;;5055181;28;20221;-24
2023/06/30 12:00:26;;;;;;;15.52;11.65;;;;;;;;;;5068950;28;20538;-24
2023/06/30 12:02:53;;;;;;;16.90;11.45;;;;;;;;;;5062682;28;20234;-25
2023/06/30 12:05:23;;;;;;;15.68;11.45;;;;;;;;;;5070946;28;20204;-24
2023/06/30 12:07:50;;;;;;;16.30;12.15;;;;;;;;;;5069616;28;20249;-25
2023/06/30 12:10:18;;;;;;;15.75;11.65;;;;;;;;;;5062111;28;20284;-25
2023/06/30 12:12:45;;;;;;;15.18;10.32;;;;;;;;;;5071700;28;20209;-26
2023/06/30 12:15:14;;;;;;;14.90;11.25;;;;;;;;;;5072264;28;20205;-25
2023/06/30 12:17:43;;;;;;;18.13;12.68;;;;;;;;;;5069975;28;20244;-26
2023/06/30 12:20:11;;;;;;;15.30;11.13;;;;;;;;;;5066022;28;20297;-26
2023/06/30 12:22:41;;;;;;;16.83;11.32;;;;;;;;;;5071739;28;20201;-25
2023/06/30 12:25:11;;;;;;;18.67;11.70;;;;;;;;;;5069883;28;20207;-26
2023/06/30 12:27:41;;;;;;;19.77;11.90;;;;;;;;;;5066558;28;20218;-25
2023/06/30 12:30:15;;;;;;;16.67;11.30;;;;;;;;;;5071706;28;20205;-25
2023/06/30 12:32:44;;;;;;;16.73;12.30;;;;;;;;;;5072390;28;20290;-23
2023/06/30 12:35:28;;;;;;;17.48;12.40;;;;;;;;;;5065542;28;20210;-26
2023/06/30 12:37:55;;;;;;;15.82;11.90;;;;;;;;;;5067907;28;20233;-26
2023/06/30 12:40:23;;;;;;;14.65;11.52;;;;;;;;;;5062769;28;20207;-24
2023/06/30 12:42:52;;;;;;;15.00;11.98;;;;;;;;;;5066875;28;20199;-38
2023/06/30 12:45:20;;;;;;;17.67;12.10;;;;;;;;;;5069633;28;20273;-35
2023/06/30 12:47:48;;;;;;;17.88;11.35;;;;;;;;;;5058702;28;20219;-32
2023/06/30 12:50:15;;;;;;;19.30;13.32;;;;;;;;;;5067943;28;20205;-35
2023/06/30 12:52:42;;;;;;;19.27;13.98;;;;;;;;;;5075881;28;20279;-30
2023/06/30 12:55:10;;;;;;;23.70;13.10;;;;;;;;;;5064466;28;20595;-34
2023/06/30 12:57:37;;;;;;;22.83;13.80;;;;;;;;;;5074806;28;20229;-31
2023/06/30 13:00:07;;;;;;;20.33;13.23;;;;;;;;;;5075852;28;20229;-32
2023/06/30 13:02:34;;;;;;;19.83;13.77;;;;;;;;;;5075838;28;20210;-28
2023/06/30 13:05:03;;;;;;;16.75;12.77;;;;;;;;;;5066160;28;20198;-28
2023/06/30 13:07:32;;;;;;;20.25;14.27;;;;;;;;;;5074757;28;20294;-32
2023/06/30 13:09:59;;;;;;;18.23;13.73;;;;;;;;;;5065476;28;20660;-38
2023/06/30 13:12:26;;;;;;;20.00;13.70;;;;;;;;;;5074375;28;20553;-31
2023/06/30 13:14:53;;;;;;;18.67;13.70;;;;;;;;;;5075286;28;20217;-29
2023/06/30 13:17:20;;;;;;;18.88;13.93;;;;;;;;;;5068933;28;20232;-37
2023/06/30 13:19:48;;;;;;;19.40;13.98;;;;;;;;;;5072216;28;20206;-31
2023/06/30 13:22:16;;;;;;;21.65;14.18;;;;;;;;;;5074871;28;20237;-29
2023/06/30 13:24:44;;;;;;;19.20;13.50;;;;;;;;;;5072563;28;20207;-35
2023/06/30 13:27:11;;;;;;;19.85;14.13;;;;;;;;;;5073843;28;20206;-34
2023/06/30 13:29:44;;;;;;;26.38;15.82;;;;;;;;;;5074526;28;20238;-30
2023/06/30 13:32:11;;;;;;;21.23;16.23;;;;;;;;;;5074784;28;20665;-33
2023/06/30 13:34:39;;;;;;;20.10;14.75;;;;;;;;;;5067450;28;20205;-32
2023/06/30 13:37:06;;;;;;;18.73;13.90;;;;;;;;;;5073848;28;20254;-29
2023/06/30 13:39:35;;;;;;;19.65;13.85;;;;;;;;;;5068008;28;20230;-32
2023/06/30 13:42:02;;;;;;;21.23;15.27;;;;;;;;;;5071280;28;20265;-34
2023/06/30 13:44:31;;;;;;;19.17;14.30;;;;;;;;;;5073987;28;20553;-33
2023/06/30 13:46:58;;;;;;;20.40;14.05;;;;;;;;;;5070980;28;20207;-35
2023/06/30 13:49:25;;;;;;;19.65;14.25;;;;;;;;;;5062176;28;20227;-33
2023/06/30 13:51:52;;;;;;;20.50;14.02;;;;;;;;;;5063039;28;20207;-30
2023/06/30 13:54:20;;;;;;;17.67;13.70;;;;;;;;;;5067640;28;20331;-31
2023/06/30 13:56:48;;;;;;;19.80;13.25;;;;;;;;;;5064969;28;20230;-33
2023/06/30 13:59:16;;;;;;;21.95;14.00;;;;;;;;;;5074119;28;20238;-32
2023/06/30 14:01:43;;;;;;;18.83;13.02;;;;;;;;;;5074281;28;20305;-35
2023/06/30 14:04:10;;;;;;;19.27;12.90;;;;;;;;;;5067328;28;20210;-30
2023/06/30 14:06:37;;;;;;;19.05;13.23;;;;;;;;;;5066978;28;20213;-34
2023/06/30 14:09:05;;;;;;;21.15;14.70;;;;;;;;;;5068921;28;20323;-34
2023/06/30 14:11:32;;;;;;;18.98;13.70;;;;;;;;;;5063182;28;20207;-36
2023/06/30 14:14:03;;;;;;;18.95;13.52;;;;;;;;;;5074195;28;20214;-34
2023/06/30 14:16:30;;;;;;;23.13;14.55;;;;;;;;;;5074195;28;20192;-34
2023/06/30 14:18:57;;;;;;;18.80;13.52;;;;;;;;;;5070269;28;20273;-30
2023/06/30 14:21:24;;;;;;;21.70;15.20;;;;;;;;;;5058763;28;20204;-33
2023/06/30 14:23:51;;;;;;;18.92;14.48;;;;;;;;;;5070485;28;20214;-32
2023/06/30 14:26:18;;;;;;;20.65;14.07;;;;;;;;;;5069591;28;20632;-31
2023/06/30 14:28:45;;;;;;;18.48;13.55;;;;;;;;;;5074172;28;20299;-34
2023/06/30 14:31:14;;;;;;;21.70;14.82;;;;;;;;;;5073581;28;20207;-31
2023/06/30 14:33:41;;;;;;;20.77;14.65;;;;;;;;;;5068318;28;20676;-33
2023/06/30 14:36:08;;;;;;;21.27;15.10;;;;;;;;;;5074233;28;20214;-39
2023/06/30 14:38:36;;;;;;;19.13;13.63;;;;;;;;;;5072585;28;20254;-34